Pagina principale
METAR-TAF:

METAR-TAF

Aeroporti :

Buochs, Svizzera

latitudine: 46-58-28N, longitudine: 8-23-49E, altezza: 449 m

Osservazione

Il bollettino è stato emesso 25 minuti fa, alle 02:20 UTC
Vento 3 kt da ovest
Temperature 8°C
Umidità 100%
Pressione 1019 hPa
Visibilità: 3200 m
foschia

METAR: LSZC 190220Z AUTO 27003KT 3200 BR NCD 08/08 Q1019

Ora: 04:45 (02:45 UTC)

Previsione

Il bollettino è stato emesso 12 ore e 20 minuti fa, alle 14:25 UTC
Previsione valida dal 18 alle 15 UTC al 18 alle 24 UTC
Vento 2 kt da direzioni variabili
Visibilità: 7000 m
Evoluzione graduale
dal 18 alle 18 UTC al 18 alle 22 UTC
Visibilità: 4500 m
foschia
Probabilità 40%
dal 18 alle 20 UTC al 18 alle 24 UTC
Visibilità: 2500 m
banchi di nebbia

TAF: LSZC 181425Z 1815/1824 VRB02KT 7000 NSC BECMG 1818/1822 4500 BR PROB40 1820/1824 2500 BCFG

Osservazioni e previsioni meteorologiche di più di 4000 aeroporti (messaggi METAR e TAF).

Le stazioni disponibili sono rappresentate dai dischi gialli e rossi sulla carta.

Puntare il mouse per vedere il nome della stazione.

Clicca sopra per visualizzare le osservazioni e previsioni meteorologiche.

Per cambiare la mappa : fare clic sui pulsanti verdi con una croce nera per ingrandire, il pulsante verde con un trattino per diminuire, o sulla freccia verde per le mappe adiacenti.


METAR-TAF: